KELZ/ELZ METAR and TAF weather

Enter ICAO airport designator
Station Type Date Time Source
KELZ METAR 2020/03/31 22:08 UTC NOAA

KELZ 312208Z AUTO 08003KT 10SM -RA FEW018 BKN036 OVC055 05/03 A2989 RMK AO2 P0000 T00500033


Station Type Date Time Source
KELZ Decoded METAR 2020/03/31 22:08 UTC NOAA

WELLSVILLE MUNICIPAL AIRPORT, NY, United States (KELZ) 42-06N 077-60W 646M
Mar 31, 2020 - 06:08 PM EDT / 2020.03.31 2208 UTC
Wind: from the E (080 degrees) at 3 MPH (3 KT):0
Visibility: 10 mile(s):0
Sky conditions: overcast
Weather: light rain
Precipitation last hour: A trace
Temperature: 41.0 F (5.0 C)
Dew Point: 37.9 F (3.3 C)
Relative Humidity: 88%
Pressure (altimeter): 29.89 in. Hg (1012 hPa)
ob: KELZ 312208Z AUTO 08003KT 10SM -RA FEW018 BKN036 OVC055 05/03 A2989 RMK AO2 P0000 T00500033
cycle: 22

Station Type Date Time Source
KELZ TAF UTC NOAA

Error!

Example: see airport list